Time;durP1;ratioP1;P1;durP2;ratioP2;P2;SDS_P1;SDS_P2;PMS_P1;PMS_P2;Temp;Humidity;BMP_temperature;BMP_pressure;BME280_temperature;BME280_humidity;BME280_pressure;Samples;Min_cycle;Max_cycle;Signal;HPM_P1;HPM_P2
2021/11/30 00:01:37;;;;;;;;;;;5.40;99.90;;;;;;8425235;28;20363;-73
2021/11/30 00:05:39;;;;;;;;;;;5.30;99.90;;;;;;8426869;28;20367;-73
2021/11/30 00:13:42;;;;;;;;;;;5.30;99.90;;;;;;8416924;28;19920;-73
2021/11/30 00:17:49;;;;;;;;;;;5.40;99.90;;;;;;8422820;28;19924;-73
2021/11/30 00:21:50;;;;;;;;;;;5.30;99.90;;;;;;8432271;28;19963;-73
2021/11/30 00:25:52;;;;;;;;;;;5.30;99.90;;;;;;8452446;27;19951;-73
2021/11/30 00:30:00;;;;;;;;;;;5.20;99.90;;;;;;8420765;28;20335;-73
2021/11/30 00:34:04;;;;;;;;;;;5.30;99.90;;;;;;8429963;28;20472;-73
2021/11/30 00:38:06;;;;;;;;;;;5.30;99.90;;;;;;8430475;28;20343;-73
2021/11/30 00:42:08;;;;;;;;;;;5.30;99.90;;;;;;8426490;28;19920;-73
2021/11/30 00:46:19;;;;;;;;;;;5.40;99.90;;;;;;8415262;28;19920;-74
2021/11/30 00:50:22;;;;;;;;;;;5.40;99.90;;;;;;8423017;28;19924;-73
2021/11/30 00:54:24;;;;;;;;;;;5.40;99.90;;;;;;8422435;28;19974;-73
2021/11/30 00:58:26;;;;;;;;;;;5.30;99.90;;;;;;8418742;28;19958;-73
2021/11/30 01:02:28;;;;;;;;;;;5.20;99.90;;;;;;8424037;28;20287;-73
2021/11/30 01:06:29;;;;;;;;;;;5.10;99.90;;;;;;8427717;28;20252;-73
2021/11/30 01:10:31;;;;;;;;;;;5.00;99.90;;;;;;8423821;28;19935;-73
2021/11/30 01:14:33;;;;;;;;;;;4.90;99.90;;;;;;8434555;28;19928;-73
2021/11/30 01:18:35;;;;;;;;;;;4.80;99.90;;;;;;8425668;28;19927;-73
2021/11/30 01:22:37;;;;;;;;;;;4.80;99.90;;;;;;8421120;28;19927;-73
2021/11/30 01:26:38;;;;;;;;;;;4.70;99.90;;;;;;8427646;28;19927;-73
2021/11/30 01:30:40;;;;;;;;;;;4.70;99.90;;;;;;8461048;27;20401;-73
2021/11/30 01:34:42;;;;;;;;;;;4.60;99.90;;;;;;8426980;28;19980;-73
2021/11/30 01:38:44;;;;;;;;;;;4.60;99.90;;;;;;8426954;28;19959;-73
2021/11/30 01:42:49;;;;;;;;;;;4.50;99.90;;;;;;8428787;28;20395;-73
2021/11/30 01:46:55;;;;;;;;;;;4.50;99.90;;;;;;8464266;27;19962;-73
2021/11/30 01:50:59;;;;;;;;;;;4.40;99.90;;;;;;8425346;28;20372;-72
2021/11/30 01:55:01;;;;;;;;;;;4.40;99.90;;;;;;8425457;28;19977;-73
2021/11/30 01:59:03;;;;;;;;;;;4.30;99.90;;;;;;8417744;28;19970;-73
2021/11/30 02:03:06;;;;;;;;;;;4.30;99.90;;;;;;8436586;28;19930;-73
2021/11/30 02:07:08;;;;;;;;;;;4.30;99.90;;;;;;8427687;28;19920;-73
2021/11/30 02:11:09;;;;;;;;;;;4.20;99.90;;;;;;8424702;28;20466;-73
2021/11/30 02:15:12;;;;;;;;;;;4.30;99.90;;;;;;8425676;28;19928;-73
2021/11/30 02:19:13;;;;;;;;;;;4.30;99.90;;;;;;8430008;28;19955;-72
2021/11/30 02:23:32;;;;;;;;;;;4.30;99.90;;;;;;8425327;28;19928;-73
2021/11/30 02:27:34;;;;;;;;;;;4.30;99.90;;;;;;8430373;28;19923;-72
2021/11/30 02:31:37;;;;;;;;;;;4.30;99.90;;;;;;8431654;28;19931;-72
2021/11/30 02:35:39;;;;;;;;;;;4.40;99.90;;;;;;8428707;28;19932;-72
2021/11/30 02:39:43;;;;;;;;;;;4.40;99.90;;;;;;8459852;27;19930;-72
2021/11/30 02:43:45;;;;;;;;;;;4.50;99.90;;;;;;8429638;28;19943;-72
2021/11/30 02:47:46;;;;;;;;;;;4.50;99.90;;;;;;8429275;28;19956;-72
2021/11/30 02:51:51;;;;;;;;;;;4.60;99.90;;;;;;8457616;27;19999;-72
2021/11/30 02:55:53;;;;;;;;;;;4.60;99.90;;;;;;8425506;28;19982;-72
2021/11/30 02:59:54;;;;;;;;;;;4.60;99.90;;;;;;8416566;28;20390;-72
2021/11/30 03:03:56;;;;;;;;;;;4.70;99.90;;;;;;8429495;28;20287;-72
2021/11/30 03:07:58;;;;;;;;;;;4.80;99.90;;;;;;8425333;28;19975;-72
2021/11/30 03:11:59;;;;;;;;;;;4.80;99.90;;;;;;8428718;28;19927;-72
2021/11/30 03:16:01;;;;;;;;;;;4.90;99.90;;;;;;8421733;28;19983;-72
2021/11/30 03:20:03;;;;;;;;;;;5.00;99.90;;;;;;8430185;28;19920;-72
2021/11/30 03:24:05;;;;;;;;;;;5.10;99.90;;;;;;8421725;28;19924;-73
2021/11/30 03:28:06;;;;;;;;;;;5.20;99.90;;;;;;8428474;28;19951;-73
2021/11/30 03:36:30;;;;;;;;;;;5.30;99.90;;;;;;8424669;28;20403;-73
2021/11/30 03:40:32;;;;;;;;;;;5.40;99.90;;;;;;8426102;28;19924;-73
2021/11/30 03:44:33;;;;;;;;;;;5.50;99.90;;;;;;8427790;28;20287;-73
2021/11/30 03:48:35;;;;;;;;;;;5.50;99.90;;;;;;8422623;28;19928;-73
2021/11/30 03:52:37;;;;;;;;;;;5.60;99.90;;;;;;8421915;28;19932;-73
2021/11/30 03:56:38;;;;;;;;;;;5.60;99.90;;;;;;8425824;28;19920;-73
2021/11/30 04:00:41;;;;;;;;;;;5.70;99.90;;;;;;8421216;28;19920;-73
2021/11/30 04:04:45;;;;;;;;;;;5.70;99.90;;;;;;8415921;28;19927;-73
2021/11/30 04:08:47;;;;;;;;;;;5.80;99.90;;;;;;8426064;28;19959;-73
2021/11/30 04:12:49;;;;;;;;;;;5.80;99.90;;;;;;8427864;28;19965;-73
2021/11/30 04:16:50;;;;;;;;;;;5.90;99.90;;;;;;8423315;28;20307;-72
2021/11/30 04:20:53;;;;;;;;;;;5.90;99.90;;;;;;8427954;28;19928;-73
2021/11/30 04:24:54;;;;;;;;;;;6.00;99.90;;;;;;8419190;28;19931;-73
2021/11/30 04:28:56;;;;;;;;;;;6.00;99.90;;;;;;8426878;28;19967;-73
2021/11/30 04:32:58;;;;;;;;;;;6.00;99.90;;;;;;8423557;28;20271;-73
2021/11/30 04:37:00;;;;;;;;;;;6.10;99.90;;;;;;8422644;28;19920;-74
2021/11/30 04:41:01;;;;;;;;;;;6.10;99.90;;;;;;8424677;28;20384;-74
2021/11/30 04:45:05;;;;;;;;;;;6.20;99.90;;;;;;8431327;28;19927;-73
2021/11/30 04:53:33;;;;;;;;;;;6.30;99.90;;;;;;8430797;28;19920;-74
2021/11/30 04:57:34;;;;;;;;;;;6.50;99.90;;;;;;8415380;28;20395;-74
2021/11/30 05:01:36;;;;;;;;;;;6.60;99.90;;;;;;8432337;28;20427;-73
2021/11/30 05:05:39;;;;;;;;;;;6.80;99.90;;;;;;8429275;28;19920;-74
2021/11/30 05:09:40;;;;;;;;;;;7.00;99.90;;;;;;8446133;28;20291;-74
2021/11/30 05:13:42;;;;;;;;;;;7.30;99.90;;;;;;8427042;28;19924;-74
2021/11/30 05:17:44;;;;;;;;;;;7.40;99.90;;;;;;8463837;27;20295;-74
2021/11/30 05:21:45;;;;;;;;;;;7.60;99.90;;;;;;8432986;28;19924;-74
2021/11/30 05:25:47;;;;;;;;;;;7.70;99.90;;;;;;8437538;28;20331;-74
2021/11/30 05:29:49;;;;;;;;;;;7.80;99.90;;;;;;8440184;28;19956;-74
2021/11/30 05:33:50;;;;;;;;;;;7.90;99.90;;;;;;8433662;28;19946;-74
2021/11/30 05:37:52;;;;;;;;;;;7.90;99.90;;;;;;8433596;28;19958;-74
2021/11/30 05:41:54;;;;;;;;;;;8.00;99.90;;;;;;8425465;28;19927;-74
2021/11/30 05:45:55;;;;;;;;;;;8.10;99.90;;;;;;8422577;27;19955;-74
2021/11/30 05:49:57;;;;;;;;;;;8.10;99.90;;;;;;8421448;28;19927;-74
2021/11/30 05:54:00;;;;;;;;;;;8.20;99.90;;;;;;8432135;28;20489;-74
2021/11/30 05:58:02;;;;;;;;;;;8.20;99.90;;;;;;8431849;28;19939;-74
2021/11/30 06:02:05;;;;;;;;;;;8.20;99.90;;;;;;8431898;28;19927;-74
2021/11/30 06:06:07;;;;;;;;;;;8.30;99.90;;;;;;8431175;28;19959;-74
2021/11/30 06:10:08;;;;;;;;;;;8.30;99.90;;;;;;8430134;28;19927;-75
2021/11/30 06:14:10;;;;;;;;;;;8.40;99.90;;;;;;8429776;28;20225;-75
2021/11/30 06:18:12;;;;;;;;;;;8.40;99.90;;;;;;8431107;28;19974;-74
2021/11/30 06:22:13;;;;;;;;;;;8.40;99.90;;;;;;8431431;28;19927;-75
2021/11/30 06:26:16;;;;;;;;;;;8.50;99.90;;;;;;8426985;28;20193;-74
2021/11/30 06:30:17;;;;;;;;;;;8.50;99.90;;;;;;8419186;28;19920;-75
2021/11/30 06:34:19;;;;;;;;;;;8.50;99.90;;;;;;8419088;28;19928;-75
2021/11/30 06:38:20;;;;;;;;;;;8.60;99.90;;;;;;8418495;28;19927;-74
2021/11/30 06:42:23;;;;;;;;;;;8.60;99.90;;;;;;8429144;28;19959;-74
2021/11/30 06:46:24;;;;;;;;;;;8.60;99.90;;;;;;8414311;28;19967;-74
2021/11/30 06:50:26;;;;;;;;;;;8.60;99.90;;;;;;8429868;28;19981;-74
2021/11/30 06:54:27;;;;;;;;;;;8.60;99.90;;;;;;8418137;28;20579;-74
2021/11/30 06:58:29;;;;;;;;;;;8.70;99.90;;;;;;8422845;28;19927;-74
2021/11/30 07:02:32;;;;;;;;;;;8.70;99.90;;;;;;8424330;28;20001;-74
2021/11/30 07:07:20;;;;;;;;;;;8.70;99.90;;;;;;8429142;28;19959;-74
2021/11/30 07:11:07;;;;;;;;;;;8.70;99.90;;;;;;8433639;28;19955;-74
2021/11/30 07:15:10;;;;;;;;;;;8.80;99.90;;;;;;8430962;28;19935;-74
2021/11/30 07:19:11;;;;;;;;;;;8.80;99.90;;;;;;8430833;28;19920;-75
2021/11/30 07:23:13;;;;;;;;;;;8.80;99.90;;;;;;8433594;28;19963;-75
2021/11/30 07:27:15;;;;;;;;;;;8.80;99.90;;;;;;8428815;28;19931;-74
2021/11/30 07:31:17;;;;;;;;;;;8.80;99.90;;;;;;8424936;28;19931;-74
2021/11/30 07:35:20;;;;;;;;;;;8.90;99.90;;;;;;8425982;28;20309;-74
2021/11/30 07:39:24;;;;;;;;;;;8.90;99.90;;;;;;8427553;28;19935;-74
2021/11/30 07:43:26;;;;;;;;;;;8.90;99.90;;;;;;8424396;28;20279;-74
2021/11/30 07:47:28;;;;;;;;;;;9.00;99.90;;;;;;8427215;28;19942;-74
2021/11/30 07:51:31;;;;;;;;;;;9.00;99.90;;;;;;8428001;28;19927;-74
2021/11/30 07:55:34;;;;;;;;;;;9.00;99.90;;;;;;8426931;28;19959;-75
2021/11/30 07:59:36;;;;;;;;;;;9.00;99.90;;;;;;8419975;28;19942;-74
2021/11/30 08:03:38;;;;;;;;;;;9.00;99.90;;;;;;8455123;27;19955;-74
2021/11/30 08:07:40;;;;;;;;;;;9.10;99.90;;;;;;8426412;28;19951;-74
2021/11/30 08:11:42;;;;;;;;;;;9.10;99.90;;;;;;8427477;28;19943;-74
2021/11/30 08:15:43;;;;;;;;;;;9.10;99.90;;;;;;8426094;28;19963;-74
2021/11/30 08:19:47;;;;;;;;;;;9.20;99.90;;;;;;8426352;28;20348;-74
2021/11/30 08:23:48;;;;;;;;;;;9.20;99.90;;;;;;8454568;27;19920;-74
2021/11/30 08:27:51;;;;;;;;;;;9.20;99.90;;;;;;8424404;28;19920;-74
2021/11/30 08:32:08;;;;;;;;;;;9.20;99.90;;;;;;8413713;28;19927;-74
2021/11/30 08:36:09;;;;;;;;;;;9.30;99.90;;;;;;8412945;28;19927;-74
2021/11/30 08:40:12;;;;;;;;;;;9.30;99.90;;;;;;8417482;28;19928;-74
2021/11/30 08:44:13;;;;;;;;;;;9.30;99.90;;;;;;8425329;28;20348;-74
2021/11/30 08:48:19;;;;;;;;;;;9.30;99.90;;;;;;8425715;28;19928;-74
2021/11/30 08:52:26;;;;;;;;;;;9.30;99.90;;;;;;8424266;28;19975;-74
2021/11/30 08:56:27;;;;;;;;;;;9.40;99.90;;;;;;8423479;28;19920;-75
2021/11/30 09:00:30;;;;;;;;;;;9.40;99.90;;;;;;8420241;28;20312;-74
2021/11/30 09:04:32;;;;;;;;;;;9.40;99.90;;;;;;8411641;28;19966;-74
2021/11/30 09:08:33;;;;;;;;;;;9.40;99.90;;;;;;8425020;28;20298;-74
2021/11/30 09:12:35;;;;;;;;;;;9.50;99.90;;;;;;8426531;28;19920;-74
2021/11/30 09:16:37;;;;;;;;;;;9.40;99.90;;;;;;8424720;28;19931;-74
2021/11/30 09:20:45;;;;;;;;;;;9.50;99.90;;;;;;8425478;28;20342;-74
2021/11/30 09:24:50;;;;;;;;;;;9.50;99.90;;;;;;8426234;28;20015;-74
2021/11/30 09:28:52;;;;;;;;;;;9.50;99.90;;;;;;8427361;28;19924;-74
2021/11/30 09:32:53;;;;;;;;;;;9.50;99.90;;;;;;8424323;28;19920;-74
2021/11/30 09:36:55;;;;;;;;;;;9.50;99.90;;;;;;8425042;28;19920;-74
2021/11/30 09:41:00;;;;;;;;;;;9.50;99.90;;;;;;8424389;28;20387;-73
2021/11/30 09:45:24;;;;;;;;;;;9.60;99.90;;;;;;8415697;28;19928;-74
2021/11/30 09:49:28;;;;;;;;;;;9.60;99.90;;;;;;8417782;28;19951;-75
2021/11/30 09:53:29;;;;;;;;;;;9.60;99.90;;;;;;8424244;28;19928;-74
2021/11/30 09:57:31;;;;;;;;;;;9.60;99.90;;;;;;8410806;28;19924;-74
2021/11/30 10:01:33;;;;;;;;;;;9.70;99.90;;;;;;8418628;28;19920;-74
2021/11/30 10:05:36;;;;;;;;;;;9.70;99.90;;;;;;8420828;28;19939;-74
2021/11/30 10:09:38;;;;;;;;;;;9.70;99.90;;;;;;8418171;28;19930;-73
2021/11/30 10:13:39;;;;;;;;;;;9.70;99.90;;;;;;8414567;28;19927;-74
2021/11/30 10:17:41;;;;;;;;;;;9.80;99.90;;;;;;8415600;28;19920;-74
2021/11/30 10:21:43;;;;;;;;;;;9.80;99.90;;;;;;8413662;28;20356;-74
2021/11/30 10:25:46;;;;;;;;;;;9.80;99.90;;;;;;8412128;28;19920;-74
2021/11/30 10:29:48;;;;;;;;;;;9.80;99.90;;;;;;8429425;28;20417;-74
2021/11/30 10:33:50;;;;;;;;;;;9.80;99.90;;;;;;8428425;28;19920;-74
2021/11/30 10:37:53;;;;;;;;;;;9.80;99.90;;;;;;8428857;28;19933;-73
2021/11/30 10:42:14;;;;;;;;;;;9.80;99.90;;;;;;8426412;28;19967;-74
2021/11/30 10:46:29;;;;;;;;;;;9.70;99.90;;;;;;8415666;28;19921;-74
2021/11/30 10:50:39;;;;;;;;;;;9.60;99.90;;;;;;8417470;28;19950;-74
2021/11/30 10:54:40;;;;;;;;;;;9.50;99.90;;;;;;8423018;28;19952;-74
2021/11/30 10:58:42;;;;;;;;;;;9.50;99.90;;;;;;8416983;28;20615;-74
2021/11/30 11:02:53;;;;;;;;;;;9.50;99.90;;;;;;8414501;28;20249;-74
2021/11/30 11:07:04;;;;;;;;;;;9.40;99.90;;;;;;8424120;28;19977;-74
2021/11/30 11:11:05;;;;;;;;;;;9.40;99.90;;;;;;8430991;27;19921;-74
2021/11/30 11:15:07;;;;;;;;;;;9.40;99.90;;;;;;8421880;28;19920;-74
2021/11/30 11:19:09;;;;;;;;;;;9.40;99.90;;;;;;8416382;28;19919;-74
2021/11/30 11:23:22;;;;;;;;;;;9.40;99.90;;;;;;8418818;28;19959;-74
2021/11/30 11:27:34;;;;;;;;;;;9.50;99.90;;;;;;8423580;28;20351;-74
2021/11/30 11:31:40;;;;;;;;;;;9.50;99.90;;;;;;8434607;28;19920;-74
2021/11/30 11:35:43;;;;;;;;;;;9.40;99.90;;;;;;8418108;28;19966;-75
2021/11/30 11:39:44;;;;;;;;;;;9.40;99.90;;;;;;8411744;28;20023;-74
2021/11/30 11:43:46;;;;;;;;;;;9.50;99.90;;;;;;8415341;28;19963;-75
2021/11/30 11:47:48;;;;;;;;;;;9.40;99.90;;;;;;8417728;28;20348;-74
2021/11/30 11:51:51;;;;;;;;;;;9.40;99.90;;;;;;8412967;28;19928;-74
2021/11/30 11:56:11;;;;;;;;;;;9.50;99.90;;;;;;8422057;28;19932;-74
2021/11/30 12:00:14;;;;;;;;;;;9.40;99.90;;;;;;8410944;28;19920;-75
2021/11/30 12:04:17;;;;;;;;;;;9.50;99.90;;;;;;8423897;28;20379;-74
2021/11/30 12:08:20;;;;;;;;;;;9.50;99.90;;;;;;8424290;28;19924;-74
2021/11/30 12:12:22;;;;;;;;;;;9.50;99.90;;;;;;8424077;28;19946;-74
2021/11/30 12:16:48;;;;;;;;;;;9.50;99.90;;;;;;8424327;28;19924;-74
2021/11/30 12:20:50;;;;;;;;;;;9.50;99.90;;;;;;8455978;27;19943;-74
2021/11/30 12:24:52;;;;;;;;;;;9.50;99.90;;;;;;8420964;28;19925;-74
2021/11/30 12:28:53;;;;;;;;;;;9.50;99.90;;;;;;8426495;28;19931;-75
2021/11/30 12:32:55;;;;;;;;;;;9.50;99.90;;;;;;8426989;28;20360;-74
2021/11/30 12:37:07;;;;;;;;;;;9.70;99.90;;;;;;8413424;28;19920;-74
2021/11/30 12:41:29;;;;;;;;;;;9.80;99.90;;;;;;8415590;28;20006;-74
2021/11/30 12:45:37;;;;;;;;;;;9.90;99.90;;;;;;8414195;28;19925;-74
2021/11/30 12:49:43;;;;;;;;;;;9.90;99.90;;;;;;8409544;28;19938;-75
2021/11/30 12:53:45;;;;;;;;;;;10.00;99.90;;;;;;8402690;28;19920;-74
2021/11/30 12:57:46;;;;;;;;;;;9.90;99.90;;;;;;8404513;28;20068;-74
2021/11/30 13:02:08;;;;;;;;;;;9.90;99.90;;;;;;8409071;28;20323;-75
2021/11/30 13:06:10;;;;;;;;;;;10.00;99.90;;;;;;8410840;28;19935;-74
2021/11/30 13:10:23;;;;;;;;;;;10.00;99.90;;;;;;8401121;28;19921;-74
2021/11/30 13:14:24;;;;;;;;;;;10.00;99.90;;;;;;8402515;28;19927;-74
2021/11/30 13:18:27;;;;;;;;;;;10.00;99.90;;;;;;8400218;28;20376;-74
2021/11/30 13:22:29;;;;;;;;;;;10.00;99.90;;;;;;8404963;28;19920;-74
2021/11/30 13:26:31;;;;;;;;;;;10.00;99.90;;;;;;8425289;27;19967;-73
2021/11/30 13:30:34;;;;;;;;;;;10.00;99.90;;;;;;8412169;28;19927;-74
2021/11/30 13:34:35;;;;;;;;;;;10.00;99.90;;;;;;8402011;28;20058;-74
2021/11/30 13:38:42;;;;;;;;;;;10.10;99.90;;;;;;8399574;28;19924;-73
2021/11/30 13:42:48;;;;;;;;;;;10.00;99.90;;;;;;8398348;28;19958;-74
2021/11/30 13:46:50;;;;;;;;;;;10.00;99.90;;;;;;8406835;28;20364;-74
2021/11/30 13:50:54;;;;;;;;;;;10.00;99.90;;;;;;8398473;28;19928;-74
2021/11/30 13:55:01;;;;;;;;;;;10.00;99.90;;;;;;8398786;28;20041;-74
2021/11/30 14:03:39;;;;;;;;;;;10.10;99.90;;;;;;8395501;28;19924;-74
2021/11/30 14:07:41;;;;;;;;;;;10.10;99.90;;;;;;8395401;28;19929;-74
2021/11/30 14:11:54;;;;;;;;;;;10.10;99.90;;;;;;8401635;28;19920;-74
2021/11/30 14:16:06;;;;;;;;;;;10.00;99.90;;;;;;8399003;28;19949;-74
2021/11/30 14:20:34;;;;;;;;;;;10.10;99.90;;;;;;8395697;28;19931;-73
2021/11/30 14:24:49;;;;;;;;;;;10.10;99.90;;;;;;8395712;28;19927;-74
2021/11/30 14:29:06;;;;;;;;;;;10.10;99.90;;;;;;8396936;28;19983;-73
2021/11/30 14:33:09;;;;;;;;;;;10.10;99.90;;;;;;8398934;28;20377;-73
2021/11/30 14:37:20;;;;;;;;;;;10.10;99.90;;;;;;8404068;28;20375;-73
2021/11/30 14:41:21;;;;;;;;;;;10.10;99.90;;;;;;8393997;28;19963;-74
2021/11/30 14:45:29;;;;;;;;;;;10.10;99.90;;;;;;8410698;28;19920;-74
2021/11/30 14:49:33;;;;;;;;;;;10.10;99.90;;;;;;8406430;28;19927;-74
2021/11/30 14:53:38;;;;;;;;;;;10.10;99.90;;;;;;8398057;28;20053;-74
2021/11/30 14:57:41;;;;;;;;;;;10.10;99.90;;;;;;8403947;28;19967;-74
2021/11/30 15:01:52;;;;;;;;;;;10.00;99.90;;;;;;8411098;28;19920;-74
2021/11/30 15:05:54;;;;;;;;;;;10.00;99.90;;;;;;8395223;28;19923;-74
2021/11/30 15:09:55;;;;;;;;;;;9.90;99.90;;;;;;8394573;28;19928;-73
2021/11/30 15:14:03;;;;;;;;;;;9.90;99.90;;;;;;8390635;28;19971;-73
2021/11/30 15:18:17;;;;;;;;;;;9.80;99.90;;;;;;8399342;28;19971;-73
2021/11/30 15:22:20;;;;;;;;;;;9.80;99.90;;;;;;8393651;28;19929;-74
2021/11/30 15:26:26;;;;;;;;;;;9.70;99.90;;;;;;8396001;28;19925;-74
2021/11/30 15:30:27;;;;;;;;;;;9.70;99.90;;;;;;8393969;28;19927;-73
2021/11/30 15:34:29;;;;;;;;;;;9.70;99.90;;;;;;8390469;28;19981;-73
2021/11/30 15:38:31;;;;;;;;;;;9.70;99.90;;;;;;8394861;28;19986;-74
2021/11/30 15:42:32;;;;;;;;;;;9.60;99.90;;;;;;8392985;28;19924;-74
2021/11/30 15:46:34;;;;;;;;;;;9.60;99.90;;;;;;8391809;28;19931;-73
2021/11/30 15:50:36;;;;;;;;;;;9.60;99.90;;;;;;8398018;28;20010;-73
2021/11/30 15:54:42;;;;;;;;;;;9.60;99.90;;;;;;8395506;28;19934;-73
2021/11/30 15:58:45;;;;;;;;;;;9.60;99.90;;;;;;8394606;28;19920;-73
2021/11/30 16:02:47;;;;;;;;;;;9.50;99.90;;;;;;8390997;28;19927;-73
2021/11/30 16:06:49;;;;;;;;;;;9.50;99.90;;;;;;8393708;28;19924;-73
2021/11/30 16:10:50;;;;;;;;;;;9.50;99.90;;;;;;8392716;28;20375;-73
2021/11/30 16:14:52;;;;;;;;;;;9.50;99.90;;;;;;8389996;28;19931;-73
2021/11/30 16:18:54;;;;;;;;;;;9.50;99.90;;;;;;8400969;28;19935;-73
2021/11/30 16:22:57;;;;;;;;;;;9.50;99.90;;;;;;8398025;28;19967;-73
2021/11/30 16:26:58;;;;;;;;;;;9.50;99.90;;;;;;8389893;28;20380;-73
2021/11/30 16:31:00;;;;;;;;;;;9.50;99.90;;;;;;8395595;28;20275;-73
2021/11/30 16:35:02;;;;;;;;;;;9.50;99.90;;;;;;8390044;28;20606;-73
2021/11/30 16:39:05;;;;;;;;;;;9.50;99.90;;;;;;8394579;28;20038;-73
2021/11/30 16:43:07;;;;;;;;;;;9.50;99.90;;;;;;8427355;27;20340;-73
2021/11/30 16:47:09;;;;;;;;;;;9.50;99.90;;;;;;8398094;28;20335;-73
2021/11/30 16:51:11;;;;;;;;;;;9.50;99.90;;;;;;8394741;28;19972;-73
2021/11/30 16:55:14;;;;;;;;;;;9.60;99.90;;;;;;8402632;28;19927;-73
2021/11/30 16:59:16;;;;;;;;;;;9.60;99.90;;;;;;8396854;28;19924;-73
2021/11/30 17:03:18;;;;;;;;;;;9.60;99.90;;;;;;8399496;28;19920;-73
2021/11/30 17:07:20;;;;;;;;;;;9.60;99.90;;;;;;8396448;28;19928;-74
2021/11/30 17:11:22;;;;;;;;;;;9.60;99.90;;;;;;8410476;28;19967;-73
2021/11/30 17:15:23;;;;;;;;;;;9.60;99.90;;;;;;8432541;27;19928;-73
2021/11/30 17:19:25;;;;;;;;;;;9.60;99.90;;;;;;8437206;27;19970;-74
2021/11/30 17:23:28;;;;;;;;;;;9.70;99.90;;;;;;8400077;28;19924;-74
2021/11/30 17:27:34;;;;;;;;;;;9.70;99.90;;;;;;8398322;28;19920;-73
2021/11/30 17:31:35;;;;;;;;;;;9.80;99.90;;;;;;8401425;28;20382;-73
2021/11/30 17:35:37;;;;;;;;;;;9.80;99.90;;;;;;8395874;28;19950;-73
2021/11/30 17:39:39;;;;;;;;;;;9.90;99.90;;;;;;8398425;28;19927;-73
2021/11/30 17:43:41;;;;;;;;;;;9.90;99.90;;;;;;8404432;28;20327;-74
2021/11/30 17:47:42;;;;;;;;;;;9.80;99.90;;;;;;8394112;28;19924;-74
2021/11/30 17:51:53;;;;;;;;;;;9.90;99.90;;;;;;8401636;28;19995;-73
2021/11/30 17:55:55;;;;;;;;;;;9.80;99.90;;;;;;8408825;28;19920;-74
2021/11/30 17:59:57;;;;;;;;;;;9.90;99.90;;;;;;8431362;27;19966;-73
2021/11/30 18:03:58;;;;;;;;;;;9.90;99.90;;;;;;8401768;28;19928;-73
2021/11/30 18:08:00;;;;;;;;;;;9.90;99.90;;;;;;8407523;28;20403;-73
2021/11/30 18:12:05;;;;;;;;;;;9.90;99.90;;;;;;8401107;28;19928;-73
2021/11/30 18:16:10;;;;;;;;;;;9.90;99.90;;;;;;8401823;28;20027;-73
2021/11/30 18:20:12;;;;;;;;;;;9.90;99.90;;;;;;8402189;28;20014;-73
2021/11/30 18:24:13;;;;;;;;;;;9.90;99.90;;;;;;8411531;28;20077;-73
2021/11/30 18:28:15;;;;;;;;;;;9.90;99.90;;;;;;8421542;28;19964;-73
2021/11/30 18:32:17;;;;;;;;;;;9.90;99.90;;;;;;8406940;28;19955;-73
2021/11/30 18:36:22;;;;;;;;;;;9.90;99.90;;;;;;8411346;28;19920;-73
2021/11/30 18:40:24;;;;;;;8.50;5.40;;;9.90;99.90;;;;;;8406235;28;19920;-73
2021/11/30 18:44:26;;;;;;;8.10;4.57;;;9.90;99.90;;;;;;8408107;28;20068;-73
2021/11/30 18:48:28;;;;;;;8.13;4.88;;;9.90;99.90;;;;;;8408616;28;20055;-73
2021/11/30 18:52:30;;;;;;;9.43;4.68;;;9.90;99.90;;;;;;8402906;28;20044;-73
2021/11/30 18:56:31;;;;;;;8.27;4.80;;;9.90;99.90;;;;;;8405378;28;20129;-73
2021/11/30 19:00:35;;;;;;;10.10;5.40;;;9.90;99.90;;;;;;8407317;28;20173;-73
2021/11/30 19:04:37;;;;;;;7.85;4.50;;;9.90;99.90;;;;;;8408102;28;21032;-73
2021/11/30 19:08:39;;;;;;;10.27;5.88;;;9.80;99.90;;;;;;8421807;27;20068;-73
2021/11/30 19:12:40;;;;;;;8.65;5.43;;;9.80;99.90;;;;;;8411160;28;20126;-73
2021/11/30 19:16:42;;;;;;;9.48;5.40;;;9.80;99.90;;;;;;8408466;28;20577;-73
2021/11/30 19:20:44;;;;;;;10.10;5.65;;;9.80;99.90;;;;;;8409085;28;20040;-73
2021/11/30 19:24:46;;;;;;;7.70;4.72;;;9.80;99.90;;;;;;8407290;28;20067;-74
2021/11/30 19:28:48;;;;;;;9.18;4.65;;;9.80;99.90;;;;;;8409368;28;20036;-74
2021/11/30 19:32:50;;;;;;;9.50;5.43;;;9.80;99.90;;;;;;8407280;28;20098;-74
2021/11/30 19:36:53;;;;;;;10.07;5.57;;;9.80;99.90;;;;;;8405278;28;20533;-74
2021/11/30 19:40:58;;;;;;;11.85;6.32;;;9.80;99.90;;;;;;8414192;28;20083;-74
2021/11/30 19:45:00;;;;;;;13.57;6.63;;;9.80;99.90;;;;;;8407570;28;20080;-73
2021/11/30 19:49:03;;;;;;;12.25;7.28;;;9.80;99.90;;;;;;8407079;28;20048;-73
2021/11/30 19:53:06;;;;;;;15.10;7.72;;;9.80;99.90;;;;;;8404727;28;20433;-73
2021/11/30 19:57:13;;;;;;;11.68;6.50;;;9.80;99.90;;;;;;8402305;28;20523;-73
2021/11/30 20:05:36;;;;;;;11.68;7.20;;;9.80;99.90;;;;;;8405454;28;20462;-73
2021/11/30 20:09:38;;;;;;;12.27;6.85;;;9.80;99.90;;;;;;8407208;28;20396;-73
2021/11/30 20:13:41;;;;;;;13.27;6.60;;;9.80;99.90;;;;;;8434956;27;20126;-73
2021/11/30 20:17:42;;;;;;;10.95;6.50;;;9.80;99.90;;;;;;8409248;28;20056;-74
2021/11/30 20:21:44;;;;;;;16.17;7.93;;;9.80;99.90;;;;;;8406890;28;20094;-73
2021/11/30 20:25:50;;;;;;;13.70;6.88;;;9.90;99.90;;;;;;8402579;28;20064;-74
2021/11/30 20:29:52;;;;;;;13.73;7.25;;;9.90;99.90;;;;;;8409836;28;20075;-73
2021/11/30 20:33:54;;;;;;;12.65;6.78;;;9.80;99.90;;;;;;8404348;28;20183;-73
2021/11/30 20:42:19;;;;;;;13.43;6.07;;;9.90;99.90;;;;;;8403576;28;20485;-73
2021/11/30 20:46:22;;;;;;;14.70;6.80;;;9.90;99.90;;;;;;8406110;28;20049;-73
2021/11/30 20:50:25;;;;;;;11.60;6.35;;;9.90;99.90;;;;;;8417176;28;20071;-73
2021/11/30 20:54:27;;;;;;;11.35;5.97;;;9.80;99.90;;;;;;8435444;27;20072;-73
2021/11/30 20:58:28;;;;;;;12.10;6.50;;;9.80;99.90;;;;;;8403900;28;20128;-73
2021/11/30 21:02:33;;;;;;;13.88;6.57;;;9.80;99.90;;;;;;8408964;28;20048;-74
2021/11/30 21:06:35;;;;;;;14.85;6.45;;;9.80;99.90;;;;;;8408574;28;20446;-74
2021/11/30 21:10:42;;;;;;;10.68;5.45;;;9.80;99.90;;;;;;8402984;28;20127;-74
2021/11/30 21:14:43;;;;;;;12.13;6.10;;;9.80;99.90;;;;;;8405142;28;21127;-74
2021/11/30 21:18:45;;;;;;;11.02;6.00;;;9.80;99.90;;;;;;8403254;28;20052;-73
2021/11/30 21:22:51;;;;;;;13.25;6.05;;;9.80;99.90;;;;;;8404593;28;20110;-73
2021/11/30 21:26:53;;;;;;;9.68;5.20;;;9.70;99.90;;;;;;8404578;28;20119;-73
2021/11/30 21:30:54;;;;;;;12.68;6.05;;;9.70;99.90;;;;;;8400827;28;20048;-73
2021/11/30 21:34:56;;;;;;;16.55;6.90;;;9.70;99.90;;;;;;8404918;28;20047;-74
2021/11/30 21:38:58;;;;;;;17.13;7.80;;;9.70;99.90;;;;;;8403468;28;20059;-74
2021/11/30 21:43:03;;;;;;;14.43;8.00;;;9.60;99.90;;;;;;8405676;28;20265;-73
2021/11/30 21:47:06;;;;;;;13.88;8.07;;;9.60;99.90;;;;;;8410117;28;20052;-74
2021/11/30 21:51:09;;;;;;;19.80;11.35;;;9.60;99.90;;;;;;8411354;28;20132;-73
2021/11/30 21:55:14;;;;;;;21.20;11.32;;;9.60;99.90;;;;;;8410391;28;20055;-73
2021/11/30 21:59:16;;;;;;;22.23;12.70;;;9.60;99.90;;;;;;8406764;28;20090;-74
2021/11/30 22:03:18;;;;;;;19.75;12.43;;;9.60;99.90;;;;;;8425618;28;20079;-74
2021/11/30 22:07:21;;;;;;;22.65;13.82;;;9.70;99.90;;;;;;8437600;28;20051;-73
2021/11/30 22:11:23;;;;;;;25.10;13.80;;;9.70;99.90;;;;;;8425998;28;20040;-73
2021/11/30 22:15:25;;;;;;;21.25;12.43;;;9.70;99.90;;;;;;8464345;27;20435;-74
2021/11/30 22:19:27;;;;;;;27.75;14.60;;;9.70;99.90;;;;;;8424410;28;20472;-73
2021/11/30 22:23:30;;;;;;;25.10;15.23;;;9.70;99.90;;;;;;8428898;28;20079;-73
2021/11/30 22:27:31;;;;;;;20.95;12.77;;;9.70;99.90;;;;;;8429204;28;20052;-73
2021/11/30 22:31:33;;;;;;;23.42;12.70;;;9.70;99.90;;;;;;8434467;28;20083;-73
2021/11/30 22:35:35;;;;;;;20.27;12.95;;;9.70;99.90;;;;;;8427785;28;20466;-73
2021/11/30 22:39:37;;;;;;;19.80;11.35;;;9.70;99.90;;;;;;8426760;28;20060;-73
2021/11/30 22:43:39;;;;;;;19.92;11.50;;;9.80;99.90;;;;;;8431575;28;20174;-73
2021/11/30 22:47:40;;;;;;;17.98;10.32;;;9.80;99.90;;;;;;8434965;28;20456;-73
2021/11/30 22:51:42;;;;;;;19.27;10.50;;;9.80;99.90;;;;;;8432863;28;20040;-73
2021/11/30 22:55:44;;;;;;;18.58;10.88;;;9.80;99.90;;;;;;8431551;28;20062;-73
2021/11/30 22:59:46;;;;;;;17.90;9.77;;;9.90;99.90;;;;;;8424350;28;20048;-73
2021/11/30 23:03:47;;;;;;;17.25;9.98;;;9.90;99.90;;;;;;8429771;28;20044;-73
2021/11/30 23:07:49;;;;;;;16.23;9.23;;;9.90;99.90;;;;;;8426153;28;20122;-73
2021/11/30 23:11:51;;;;;;;16.90;9.35;;;10.00;99.90;;;;;;8432146;28;20059;-73
2021/11/30 23:15:53;;;;;;;14.00;8.30;;;10.00;99.90;;;;;;8433964;28;20079;-73
2021/11/30 23:19:55;;;;;;;;;;;10.10;99.90;;;;;;8427290;28;20664;-73
2021/11/30 23:23:57;;;;;;;;;;;10.10;99.90;;;;;;8423052;28;19919;-73
2021/11/30 23:28:07;;;;;;;12.95;7.05;;;10.10;99.90;;;;;;8431798;28;19919;-73
2021/11/30 23:32:09;;;;;;;15.70;6.65;;;10.10;99.90;;;;;;8431711;28;20079;-73
2021/11/30 23:36:11;;;;;;;10.95;6.47;;;10.10;99.90;;;;;;8430147;28;20047;-73
2021/11/30 23:40:14;;;;;;;11.07;6.53;;;10.00;99.90;;;;;;8434699;28;20455;-73